sensor_id;sensor_type;location;lat;lon;timestamp;P1;durP1;ratioP1;P2;durP2;ratioP2
18574;SDS011;9417;16.484;102.872;2023-01-31T00:01:10;61.35;;;39.25;;
18574;SDS011;9417;16.484;102.872;2023-01-31T00:03:21;69.47;;;42.25;;
18574;SDS011;9417;16.484;102.872;2023-01-31T00:05:28;63.80;;;41.80;;
18574;SDS011;9417;16.484;102.872;2023-01-31T00:07:35;69.80;;;42.78;;
18574;SDS011;9417;16.484;102.872;2023-01-31T00:09:42;67.05;;;44.22;;
18574;SDS011;9417;16.484;102.872;2023-01-31T00:11:49;73.70;;;45.88;;
18574;SDS011;9417;16.484;102.872;2023-01-31T00:13:56;71.65;;;44.80;;
18574;SDS011;9417;16.484;102.872;2023-01-31T00:16:04;71.50;;;43.53;;
18574;SDS011;9417;16.484;102.872;2023-01-31T00:18:12;73.97;;;44.80;;
18574;SDS011;9417;16.484;102.872;2023-01-31T00:20:21;78.85;;;46.75;;
18574;SDS011;9417;16.484;102.872;2023-01-31T00:22:28;71.03;;;43.42;;
18574;SDS011;9417;16.484;102.872;2023-01-31T00:24:35;70.03;;;45.58;;
18574;SDS011;9417;16.484;102.872;2023-01-31T00:26:42;83.03;;;48.97;;
18574;SDS011;9417;16.484;102.872;2023-01-31T00:28:51;75.10;;;48.65;;
18574;SDS011;9417;16.484;102.872;2023-01-31T00:30:59;90.18;;;53.30;;
18574;SDS011;9417;16.484;102.872;2023-01-31T00:33:06;87.45;;;53.92;;
18574;SDS011;9417;16.484;102.872;2023-01-31T00:35:14;84.80;;;51.88;;
18574;SDS011;9417;16.484;102.872;2023-01-31T00:37:23;82.55;;;52.17;;
18574;SDS011;9417;16.484;102.872;2023-01-31T00:39:31;86.97;;;53.60;;
18574;SDS011;9417;16.484;102.872;2023-01-31T00:41:38;93.18;;;53.35;;
18574;SDS011;9417;16.484;102.872;2023-01-31T00:43:46;90.50;;;53.05;;
18574;SDS011;9417;16.484;102.872;2023-01-31T00:45:53;97.03;;;57.90;;
18574;SDS011;9417;16.484;102.872;2023-01-31T00:48:01;100.13;;;60.47;;
18574;SDS011;9417;16.484;102.872;2023-01-31T00:50:09;112.40;;;69.22;;
18574;SDS011;9417;16.484;102.872;2023-01-31T00:52:19;117.73;;;68.60;;
18574;SDS011;9417;16.484;102.872;2023-01-31T00:54:28;111.22;;;67.47;;
18574;SDS011;9417;16.484;102.872;2023-01-31T00:56:35;110.03;;;64.03;;
18574;SDS011;9417;16.484;102.872;2023-01-31T00:58:43;111.07;;;67.70;;
18574;SDS011;9417;16.484;102.872;2023-01-31T01:00:50;112.80;;;68.90;;
18574;SDS011;9417;16.484;102.872;2023-01-31T01:02:57;121.00;;;67.88;;
18574;SDS011;9417;16.484;102.872;2023-01-31T01:05:05;113.68;;;66.53;;
18574;SDS011;9417;16.484;102.872;2023-01-31T01:07:13;128.90;;;70.32;;
18574;SDS011;9417;16.484;102.872;2023-01-31T01:09:19;126.80;;;73.03;;
18574;SDS011;9417;16.484;102.872;2023-01-31T01:11:30;114.25;;;69.25;;
18574;SDS011;9417;16.484;102.872;2023-01-31T01:13:38;123.75;;;74.43;;
18574;SDS011;9417;16.484;102.872;2023-01-31T01:15:47;123.65;;;75.18;;
18574;SDS011;9417;16.484;102.872;2023-01-31T01:17:54;120.00;;;71.05;;
18574;SDS011;9417;16.484;102.872;2023-01-31T01:20:01;114.68;;;64.78;;
18574;SDS011;9417;16.484;102.872;2023-01-31T01:22:08;116.10;;;66.38;;
18574;SDS011;9417;16.484;102.872;2023-01-31T01:24:18;107.57;;;62.25;;
18574;SDS011;9417;16.484;102.872;2023-01-31T01:26:26;102.38;;;60.08;;
18574;SDS011;9417;16.484;102.872;2023-01-31T01:28:38;98.95;;;52.45;;
18574;SDS011;9417;16.484;102.872;2023-01-31T01:30:45;82.78;;;49.92;;
18574;SDS011;9417;16.484;102.872;2023-01-31T01:32:53;87.95;;;49.75;;
18574;SDS011;9417;16.484;102.872;2023-01-31T01:35:00;89.88;;;51.20;;
18574;SDS011;9417;16.484;102.872;2023-01-31T01:37:08;87.60;;;49.35;;
18574;SDS011;9417;16.484;102.872;2023-01-31T01:39:22;82.13;;;51.35;;
18574;SDS011;9417;16.484;102.872;2023-01-31T01:41:34;84.55;;;46.95;;
18574;SDS011;9417;16.484;102.872;2023-01-31T01:43:43;77.57;;;48.92;;
18574;SDS011;9417;16.484;102.872;2023-01-31T01:45:52;82.15;;;48.05;;
18574;SDS011;9417;16.484;102.872;2023-01-31T01:48:00;83.07;;;48.75;;
18574;SDS011;9417;16.484;102.872;2023-01-31T01:50:12;85.30;;;49.65;;
18574;SDS011;9417;16.484;102.872;2023-01-31T01:52:33;72.72;;;45.47;;
18574;SDS011;9417;16.484;102.872;2023-01-31T01:54:45;70.65;;;43.28;;
18574;SDS011;9417;16.484;102.872;2023-01-31T01:56:57;67.82;;;40.60;;
18574;SDS011;9417;16.484;102.872;2023-01-31T01:59:08;75.10;;;43.72;;
18574;SDS011;9417;16.484;102.872;2023-01-31T02:01:19;59.97;;;34.80;;
18574;SDS011;9417;16.484;102.872;2023-01-31T02:03:27;58.80;;;34.08;;
18574;SDS011;9417;16.484;102.872;2023-01-31T02:05:38;59.55;;;35.22;;
18574;SDS011;9417;16.484;102.872;2023-01-31T02:07:47;67.05;;;36.85;;
18574;SDS011;9417;16.484;102.872;2023-01-31T02:09:57;66.85;;;39.95;;
18574;SDS011;9417;16.484;102.872;2023-01-31T02:12:09;63.60;;;36.40;;
18574;SDS011;9417;16.484;102.872;2023-01-31T02:14:18;60.40;;;38.13;;
18574;SDS011;9417;16.484;102.872;2023-01-31T02:16:26;59.30;;;33.67;;
18574;SDS011;9417;16.484;102.872;2023-01-31T02:18:34;58.75;;;35.33;;
18574;SDS011;9417;16.484;102.872;2023-01-31T02:20:53;58.45;;;34.05;;
18574;SDS011;9417;16.484;102.872;2023-01-31T02:23:26;61.78;;;36.70;;
18574;SDS011;9417;16.484;102.872;2023-01-31T02:26:04;62.95;;;36.53;;
18574;SDS011;9417;16.484;102.872;2023-01-31T02:28:55;64.10;;;36.25;;
18574;SDS011;9417;16.484;102.872;2023-01-31T02:34:09;59.50;;;37.95;;
18574;SDS011;9417;16.484;102.872;2023-01-31T02:36:23;59.10;;;36.78;;
18574;SDS011;9417;16.484;102.872;2023-01-31T02:38:41;65.45;;;38.33;;
18574;SDS011;9417;16.484;102.872;2023-01-31T02:40:58;71.03;;;39.72;;
18574;SDS011;9417;16.484;102.872;2023-01-31T02:43:15;61.22;;;35.80;;
18574;SDS011;9417;16.484;102.872;2023-01-31T02:45:30;63.40;;;37.78;;
18574;SDS011;9417;16.484;102.872;2023-01-31T02:47:48;60.40;;;37.55;;
18574;SDS011;9417;16.484;102.872;2023-01-31T02:50:07;55.65;;;31.30;;
18574;SDS011;9417;16.484;102.872;2023-01-31T02:52:25;47.67;;;27.05;;
18574;SDS011;9417;16.484;102.872;2023-01-31T02:54:43;53.55;;;30.98;;
18574;SDS011;9417;16.484;102.872;2023-01-31T02:57:16;46.40;;;27.42;;
18574;SDS011;9417;16.484;102.872;2023-01-31T02:59:24;42.10;;;26.00;;
18574;SDS011;9417;16.484;102.872;2023-01-31T03:01:35;55.47;;;29.88;;
18574;SDS011;9417;16.484;102.872;2023-01-31T03:03:44;41.28;;;23.75;;
18574;SDS011;9417;16.484;102.872;2023-01-31T03:08:57;46.40;;;26.52;;
18574;SDS011;9417;16.484;102.872;2023-01-31T03:11:11;44.78;;;26.85;;
18574;SDS011;9417;16.484;102.872;2023-01-31T03:13:24;50.13;;;28.45;;
18574;SDS011;9417;16.484;102.872;2023-01-31T03:15:41;35.95;;;22.95;;
18574;SDS011;9417;16.484;102.872;2023-01-31T03:18:19;47.50;;;22.88;;
18574;SDS011;9417;16.484;102.872;2023-01-31T03:20:32;35.92;;;22.48;;
18574;SDS011;9417;16.484;102.872;2023-01-31T03:22:49;37.97;;;24.50;;
18574;SDS011;9417;16.484;102.872;2023-01-31T03:25:00;46.08;;;27.38;;
18574;SDS011;9417;16.484;102.872;2023-01-31T03:27:09;47.45;;;27.52;;
18574;SDS011;9417;16.484;102.872;2023-01-31T03:29:17;45.40;;;27.88;;
18574;SDS011;9417;16.484;102.872;2023-01-31T03:31:26;44.00;;;28.33;;
18574;SDS011;9417;16.484;102.872;2023-01-31T03:33:38;46.97;;;28.73;;
18574;SDS011;9417;16.484;102.872;2023-01-31T03:35:49;46.70;;;28.17;;
18574;SDS011;9417;16.484;102.872;2023-01-31T03:38:06;46.15;;;28.75;;
18574;SDS011;9417;16.484;102.872;2023-01-31T03:40:22;54.88;;;30.52;;
18574;SDS011;9417;16.484;102.872;2023-01-31T03:42:33;51.10;;;29.92;;
18574;SDS011;9417;16.484;102.872;2023-01-31T03:44:50;53.75;;;31.20;;
18574;SDS011;9417;16.484;102.872;2023-01-31T03:47:01;51.80;;;31.43;;
18574;SDS011;9417;16.484;102.872;2023-01-31T03:51:20;50.10;;;30.02;;
18574;SDS011;9417;16.484;102.872;2023-01-31T03:53:33;48.83;;;29.80;;
18574;SDS011;9417;16.484;102.872;2023-01-31T03:55:43;44.50;;;29.33;;
18574;SDS011;9417;16.484;102.872;2023-01-31T03:57:57;49.78;;;30.05;;
18574;SDS011;9417;16.484;102.872;2023-01-31T04:00:08;50.20;;;30.23;;
18574;SDS011;9417;16.484;102.872;2023-01-31T04:02:26;51.13;;;30.88;;
18574;SDS011;9417;16.484;102.872;2023-01-31T04:04:38;48.88;;;28.48;;
18574;SDS011;9417;16.484;102.872;2023-01-31T04:08:57;42.58;;;27.20;;
18574;SDS011;9417;16.484;102.872;2023-01-31T04:11:05;45.30;;;27.42;;
18574;SDS011;9417;16.484;102.872;2023-01-31T04:13:15;45.75;;;28.75;;
18574;SDS011;9417;16.484;102.872;2023-01-31T04:15:22;50.45;;;28.52;;
18574;SDS011;9417;16.484;102.872;2023-01-31T04:17:29;47.17;;;27.83;;
18574;SDS011;9417;16.484;102.872;2023-01-31T04:19:37;49.47;;;29.00;;
18574;SDS011;9417;16.484;102.872;2023-01-31T04:21:44;46.53;;;27.17;;
18574;SDS011;9417;16.484;102.872;2023-01-31T04:23:51;46.38;;;27.42;;
18574;SDS011;9417;16.484;102.872;2023-01-31T04:25:59;45.92;;;26.90;;
18574;SDS011;9417;16.484;102.872;2023-01-31T04:28:07;47.08;;;28.63;;
18574;SDS011;9417;16.484;102.872;2023-01-31T04:30:14;50.15;;;28.23;;
18574;SDS011;9417;16.484;102.872;2023-01-31T04:32:21;53.33;;;28.85;;
18574;SDS011;9417;16.484;102.872;2023-01-31T04:34:28;47.30;;;27.27;;
18574;SDS011;9417;16.484;102.872;2023-01-31T04:36:35;48.72;;;28.27;;
18574;SDS011;9417;16.484;102.872;2023-01-31T04:38:42;45.38;;;27.63;;
18574;SDS011;9417;16.484;102.872;2023-01-31T04:40:50;46.10;;;28.20;;
18574;SDS011;9417;16.484;102.872;2023-01-31T04:42:58;48.53;;;28.50;;
18574;SDS011;9417;16.484;102.872;2023-01-31T04:45:06;46.60;;;27.50;;
18574;SDS011;9417;16.484;102.872;2023-01-31T04:47:13;49.33;;;26.67;;
18574;SDS011;9417;16.484;102.872;2023-01-31T04:49:21;49.13;;;27.25;;
18574;SDS011;9417;16.484;102.872;2023-01-31T04:51:28;44.22;;;27.92;;
18574;SDS011;9417;16.484;102.872;2023-01-31T04:53:35;42.50;;;26.90;;
18574;SDS011;9417;16.484;102.872;2023-01-31T04:55:42;43.47;;;26.30;;
18574;SDS011;9417;16.484;102.872;2023-01-31T04:57:49;44.70;;;26.17;;
18574;SDS011;9417;16.484;102.872;2023-01-31T04:59:57;37.65;;;25.73;;
18574;SDS011;9417;16.484;102.872;2023-01-31T05:02:05;39.53;;;24.60;;
18574;SDS011;9417;16.484;102.872;2023-01-31T05:04:12;43.85;;;25.67;;
18574;SDS011;9417;16.484;102.872;2023-01-31T05:06:19;40.20;;;24.35;;
18574;SDS011;9417;16.484;102.872;2023-01-31T05:08:26;39.40;;;25.27;;
18574;SDS011;9417;16.484;102.872;2023-01-31T05:10:34;38.65;;;25.33;;
18574;SDS011;9417;16.484;102.872;2023-01-31T05:12:41;45.53;;;26.40;;
18574;SDS011;9417;16.484;102.872;2023-01-31T05:14:48;39.78;;;24.50;;
18574;SDS011;9417;16.484;102.872;2023-01-31T05:16:57;48.38;;;27.70;;
18574;SDS011;9417;16.484;102.872;2023-01-31T05:19:06;52.35;;;28.35;;
18574;SDS011;9417;16.484;102.872;2023-01-31T05:21:13;47.70;;;28.77;;
18574;SDS011;9417;16.484;102.872;2023-01-31T05:23:20;48.83;;;30.00;;
18574;SDS011;9417;16.484;102.872;2023-01-31T05:25:27;43.33;;;26.90;;
18574;SDS011;9417;16.484;102.872;2023-01-31T05:27:35;46.75;;;28.33;;
18574;SDS011;9417;16.484;102.872;2023-01-31T05:29:44;45.22;;;28.90;;
18574;SDS011;9417;16.484;102.872;2023-01-31T05:31:52;44.53;;;27.52;;
18574;SDS011;9417;16.484;102.872;2023-01-31T05:34:02;43.75;;;25.75;;
18574;SDS011;9417;16.484;102.872;2023-01-31T05:36:09;46.05;;;27.23;;
18574;SDS011;9417;16.484;102.872;2023-01-31T05:38:17;45.50;;;27.30;;
18574;SDS011;9417;16.484;102.872;2023-01-31T05:40:24;49.72;;;28.52;;
18574;SDS011;9417;16.484;102.872;2023-01-31T05:42:31;45.60;;;27.05;;
18574;SDS011;9417;16.484;102.872;2023-01-31T05:44:38;44.47;;;27.20;;
18574;SDS011;9417;16.484;102.872;2023-01-31T05:46:45;40.83;;;24.85;;
18574;SDS011;9417;16.484;102.872;2023-01-31T05:48:52;40.70;;;25.08;;
18574;SDS011;9417;16.484;102.872;2023-01-31T05:51:01;47.08;;;25.65;;
18574;SDS011;9417;16.484;102.872;2023-01-31T05:53:08;45.20;;;25.92;;
18574;SDS011;9417;16.484;102.872;2023-01-31T05:55:15;43.35;;;26.20;;
18574;SDS011;9417;16.484;102.872;2023-01-31T05:57:23;44.10;;;26.35;;
18574;SDS011;9417;16.484;102.872;2023-01-31T05:59:30;41.13;;;25.50;;
18574;SDS011;9417;16.484;102.872;2023-01-31T06:01:38;42.55;;;25.85;;
18574;SDS011;9417;16.484;102.872;2023-01-31T06:03:45;45.92;;;26.08;;
18574;SDS011;9417;16.484;102.872;2023-01-31T06:05:52;39.63;;;25.48;;
18574;SDS011;9417;16.484;102.872;2023-01-31T06:08:01;41.45;;;26.05;;
18574;SDS011;9417;16.484;102.872;2023-01-31T06:10:09;43.00;;;25.58;;
18574;SDS011;9417;16.484;102.872;2023-01-31T06:12:17;43.08;;;26.15;;
18574;SDS011;9417;16.484;102.872;2023-01-31T06:14:24;39.55;;;24.90;;
18574;SDS011;9417;16.484;102.872;2023-01-31T06:16:32;46.20;;;24.88;;
18574;SDS011;9417;16.484;102.872;2023-01-31T06:18:39;38.60;;;24.73;;
18574;SDS011;9417;16.484;102.872;2023-01-31T06:20:46;42.65;;;24.90;;
18574;SDS011;9417;16.484;102.872;2023-01-31T06:22:53;40.35;;;24.05;;
18574;SDS011;9417;16.484;102.872;2023-01-31T06:25:01;44.00;;;26.77;;
18574;SDS011;9417;16.484;102.872;2023-01-31T06:27:09;41.15;;;24.42;;
18574;SDS011;9417;16.484;102.872;2023-01-31T06:29:16;43.35;;;25.58;;
18574;SDS011;9417;16.484;102.872;2023-01-31T06:31:23;41.90;;;25.65;;
18574;SDS011;9417;16.484;102.872;2023-01-31T06:33:30;46.17;;;27.10;;
18574;SDS011;9417;16.484;102.872;2023-01-31T06:35:48;44.13;;;24.98;;
18574;SDS011;9417;16.484;102.872;2023-01-31T06:37:55;43.17;;;24.95;;
18574;SDS011;9417;16.484;102.872;2023-01-31T06:40:04;41.55;;;25.85;;
18574;SDS011;9417;16.484;102.872;2023-01-31T06:42:12;45.90;;;26.10;;
18574;SDS011;9417;16.484;102.872;2023-01-31T06:44:19;40.42;;;25.63;;
18574;SDS011;9417;16.484;102.872;2023-01-31T06:46:27;39.97;;;25.60;;
18574;SDS011;9417;16.484;102.872;2023-01-31T06:48:35;42.92;;;25.08;;
18574;SDS011;9417;16.484;102.872;2023-01-31T06:50:42;43.85;;;26.27;;
18574;SDS011;9417;16.484;102.872;2023-01-31T06:52:49;45.38;;;27.52;;
18574;SDS011;9417;16.484;102.872;2023-01-31T06:54:56;43.65;;;24.23;;
18574;SDS011;9417;16.484;102.872;2023-01-31T06:57:05;41.60;;;25.73;;
18574;SDS011;9417;16.484;102.872;2023-01-31T06:59:12;39.60;;;23.88;;
18574;SDS011;9417;16.484;102.872;2023-01-31T07:01:19;37.35;;;23.92;;
18574;SDS011;9417;16.484;102.872;2023-01-31T07:03:27;37.40;;;23.83;;
18574;SDS011;9417;16.484;102.872;2023-01-31T07:05:34;41.50;;;24.10;;
18574;SDS011;9417;16.484;102.872;2023-01-31T07:07:41;37.97;;;24.63;;
18574;SDS011;9417;16.484;102.872;2023-01-31T07:09:48;40.35;;;23.42;;
18574;SDS011;9417;16.484;102.872;2023-01-31T07:11:56;33.85;;;23.77;;
18574;SDS011;9417;16.484;102.872;2023-01-31T07:14:04;41.85;;;23.23;;
18574;SDS011;9417;16.484;102.872;2023-01-31T07:16:12;44.47;;;24.92;;
18574;SDS011;9417;16.484;102.872;2023-01-31T07:18:19;36.10;;;23.45;;
18574;SDS011;9417;16.484;102.872;2023-01-31T07:20:26;49.58;;;23.13;;
18574;SDS011;9417;16.484;102.872;2023-01-31T07:22:33;37.70;;;22.67;;
18574;SDS011;9417;16.484;102.872;2023-01-31T07:24:40;36.78;;;22.92;;
18574;SDS011;9417;16.484;102.872;2023-01-31T07:26:47;37.28;;;24.13;;
18574;SDS011;9417;16.484;102.872;2023-01-31T07:28:58;37.70;;;24.10;;
18574;SDS011;9417;16.484;102.872;2023-01-31T07:31:07;38.83;;;22.67;;
18574;SDS011;9417;16.484;102.872;2023-01-31T07:33:16;37.58;;;23.83;;
18574;SDS011;9417;16.484;102.872;2023-01-31T07:35:24;39.55;;;23.27;;
18574;SDS011;9417;16.484;102.872;2023-01-31T07:37:31;38.70;;;22.63;;
18574;SDS011;9417;16.484;102.872;2023-01-31T07:39:38;37.38;;;23.45;;
18574;SDS011;9417;16.484;102.872;2023-01-31T07:41:46;39.45;;;22.98;;
18574;SDS011;9417;16.484;102.872;2023-01-31T07:43:53;35.05;;;22.73;;
18574;SDS011;9417;16.484;102.872;2023-01-31T07:46:00;35.55;;;22.45;;
18574;SDS011;9417;16.484;102.872;2023-01-31T07:48:09;33.40;;;21.92;;
18574;SDS011;9417;16.484;102.872;2023-01-31T07:50:16;35.78;;;22.83;;
18574;SDS011;9417;16.484;102.872;2023-01-31T07:52:23;36.53;;;22.88;;
18574;SDS011;9417;16.484;102.872;2023-01-31T07:54:31;39.90;;;22.95;;
18574;SDS011;9417;16.484;102.872;2023-01-31T07:56:38;35.60;;;21.60;;
18574;SDS011;9417;16.484;102.872;2023-01-31T07:58:46;32.72;;;21.35;;
18574;SDS011;9417;16.484;102.872;2023-01-31T08:00:53;40.40;;;22.92;;
18574;SDS011;9417;16.484;102.872;2023-01-31T08:03:22;34.90;;;21.88;;
18574;SDS011;9417;16.484;102.872;2023-01-31T08:05:39;36.30;;;22.83;;
18574;SDS011;9417;16.484;102.872;2023-01-31T08:07:46;34.60;;;21.95;;
18574;SDS011;9417;16.484;102.872;2023-01-31T08:10:12;36.95;;;21.92;;
18574;SDS011;9417;16.484;102.872;2023-01-31T08:12:20;36.83;;;22.50;;
18574;SDS011;9417;16.484;102.872;2023-01-31T08:14:27;40.72;;;22.35;;
18574;SDS011;9417;16.484;102.872;2023-01-31T08:16:35;37.17;;;22.05;;
18574;SDS011;9417;16.484;102.872;2023-01-31T08:18:44;37.08;;;20.92;;
18574;SDS011;9417;16.484;102.872;2023-01-31T08:20:51;32.00;;;21.58;;
18574;SDS011;9417;16.484;102.872;2023-01-31T08:22:59;31.30;;;20.50;;
18574;SDS011;9417;16.484;102.872;2023-01-31T08:25:06;36.45;;;20.92;;
18574;SDS011;9417;16.484;102.872;2023-01-31T08:27:13;33.25;;;20.92;;
18574;SDS011;9417;16.484;102.872;2023-01-31T08:29:22;34.83;;;20.95;;
18574;SDS011;9417;16.484;102.872;2023-01-31T08:31:29;30.10;;;19.98;;
18574;SDS011;9417;16.484;102.872;2023-01-31T08:33:36;35.22;;;20.75;;
18574;SDS011;9417;16.484;102.872;2023-01-31T08:35:45;33.58;;;20.88;;
18574;SDS011;9417;16.484;102.872;2023-01-31T08:37:52;37.63;;;21.73;;
18574;SDS011;9417;16.484;102.872;2023-01-31T08:40:17;31.90;;;20.45;;
18574;SDS011;9417;16.484;102.872;2023-01-31T08:42:24;37.08;;;21.35;;
18574;SDS011;9417;16.484;102.872;2023-01-31T08:44:32;29.88;;;20.65;;
18574;SDS011;9417;16.484;102.872;2023-01-31T08:46:40;35.38;;;20.90;;
18574;SDS011;9417;16.484;102.872;2023-01-31T08:48:48;33.22;;;20.05;;
18574;SDS011;9417;16.484;102.872;2023-01-31T08:51:13;34.80;;;20.70;;
18574;SDS011;9417;16.484;102.872;2023-01-31T08:53:22;32.90;;;21.38;;
18574;SDS011;9417;16.484;102.872;2023-01-31T08:55:30;36.55;;;20.80;;
18574;SDS011;9417;16.484;102.872;2023-01-31T08:57:57;35.08;;;21.08;;
18574;SDS011;9417;16.484;102.872;2023-01-31T09:00:11;30.25;;;19.98;;
18574;SDS011;9417;16.484;102.872;2023-01-31T09:02:28;33.30;;;20.55;;
18574;SDS011;9417;16.484;102.872;2023-01-31T09:04:35;30.23;;;20.50;;
18574;SDS011;9417;16.484;102.872;2023-01-31T09:06:44;31.38;;;21.75;;
18574;SDS011;9417;16.484;102.872;2023-01-31T09:08:52;29.92;;;20.27;;
18574;SDS011;9417;16.484;102.872;2023-01-31T09:11:01;30.55;;;20.15;;
18574;SDS011;9417;16.484;102.872;2023-01-31T09:13:08;33.83;;;20.10;;
18574;SDS011;9417;16.484;102.872;2023-01-31T09:15:25;31.52;;;20.30;;
18574;SDS011;9417;16.484;102.872;2023-01-31T09:17:32;32.30;;;20.48;;
18574;SDS011;9417;16.484;102.872;2023-01-31T09:19:39;37.55;;;20.60;;
18574;SDS011;9417;16.484;102.872;2023-01-31T09:21:48;29.08;;;20.10;;
18574;SDS011;9417;16.484;102.872;2023-01-31T09:23:56;32.03;;;19.77;;
18574;SDS011;9417;16.484;102.872;2023-01-31T09:26:04;32.97;;;20.45;;
18574;SDS011;9417;16.484;102.872;2023-01-31T09:28:12;33.78;;;20.13;;
18574;SDS011;9417;16.484;102.872;2023-01-31T09:30:19;31.65;;;19.13;;
18574;SDS011;9417;16.484;102.872;2023-01-31T09:32:27;36.33;;;21.08;;
18574;SDS011;9417;16.484;102.872;2023-01-31T09:34:35;32.38;;;20.40;;
18574;SDS011;9417;16.484;102.872;2023-01-31T09:36:42;29.20;;;19.90;;
18574;SDS011;9417;16.484;102.872;2023-01-31T09:38:54;32.42;;;19.13;;
18574;SDS011;9417;16.484;102.872;2023-01-31T09:41:02;30.77;;;19.23;;
18574;SDS011;9417;16.484;102.872;2023-01-31T09:43:11;33.42;;;20.02;;
18574;SDS011;9417;16.484;102.872;2023-01-31T09:45:22;29.88;;;18.77;;
18574;SDS011;9417;16.484;102.872;2023-01-31T09:47:35;33.15;;;20.55;;
18574;SDS011;9417;16.484;102.872;2023-01-31T09:49:47;29.38;;;19.35;;
18574;SDS011;9417;16.484;102.872;2023-01-31T09:51:57;32.45;;;20.00;;
18574;SDS011;9417;16.484;102.872;2023-01-31T09:54:11;29.83;;;20.17;;
18574;SDS011;9417;16.484;102.872;2023-01-31T09:56:26;29.67;;;19.05;;
18574;SDS011;9417;16.484;102.872;2023-01-31T09:58:41;32.15;;;19.85;;
18574;SDS011;9417;16.484;102.872;2023-01-31T10:00:59;30.27;;;19.15;;
18574;SDS011;9417;16.484;102.872;2023-01-31T10:03:21;31.30;;;19.55;;
18574;SDS011;9417;16.484;102.872;2023-01-31T10:05:48;32.03;;;19.55;;
18574;SDS011;9417;16.484;102.872;2023-01-31T10:07:59;32.63;;;19.23;;
18574;SDS011;9417;16.484;102.872;2023-01-31T10:10:16;27.63;;;18.85;;
18574;SDS011;9417;16.484;102.872;2023-01-31T10:12:32;31.20;;;20.13;;
18574;SDS011;9417;16.484;102.872;2023-01-31T10:14:44;32.25;;;19.75;;
18574;SDS011;9417;16.484;102.872;2023-01-31T10:17:03;30.27;;;20.40;;
18574;SDS011;9417;16.484;102.872;2023-01-31T10:19:16;28.98;;;18.50;;
18574;SDS011;9417;16.484;102.872;2023-01-31T10:21:29;30.83;;;19.88;;
18574;SDS011;9417;16.484;102.872;2023-01-31T10:23:41;29.25;;;19.08;;
18574;SDS011;9417;16.484;102.872;2023-01-31T10:25:54;28.20;;;19.70;;
18574;SDS011;9417;16.484;102.872;2023-01-31T10:28:05;37.30;;;19.80;;
18574;SDS011;9417;16.484;102.872;2023-01-31T10:30:20;33.25;;;20.60;;
18574;SDS011;9417;16.484;102.872;2023-01-31T10:32:32;32.65;;;21.08;;
18574;SDS011;9417;16.484;102.872;2023-01-31T10:34:42;33.67;;;20.60;;
18574;SDS011;9417;16.484;102.872;2023-01-31T10:36:54;33.22;;;20.48;;
18574;SDS011;9417;16.484;102.872;2023-01-31T10:39:04;30.52;;;19.23;;
18574;SDS011;9417;16.484;102.872;2023-01-31T10:41:33;50.08;;;26.27;;
18574;SDS011;9417;16.484;102.872;2023-01-31T10:43:48;54.05;;;26.92;;
18574;SDS011;9417;16.484;102.872;2023-01-31T10:46:01;70.38;;;33.35;;
18574;SDS011;9417;16.484;102.872;2023-01-31T10:48:16;60.40;;;30.77;;
18574;SDS011;9417;16.484;102.872;2023-01-31T10:50:29;47.72;;;27.00;;
18574;SDS011;9417;16.484;102.872;2023-01-31T10:52:43;46.40;;;27.25;;
18574;SDS011;9417;16.484;102.872;2023-01-31T10:55:01;49.20;;;26.85;;
18574;SDS011;9417;16.484;102.872;2023-01-31T10:57:18;50.70;;;29.67;;
18574;SDS011;9417;16.484;102.872;2023-01-31T10:59:28;50.40;;;28.92;;
18574;SDS011;9417;16.484;102.872;2023-01-31T11:01:37;50.40;;;30.15;;
18574;SDS011;9417;16.484;102.872;2023-01-31T11:03:46;46.67;;;29.05;;
18574;SDS011;9417;16.484;102.872;2023-01-31T11:05:55;45.78;;;29.65;;
18574;SDS011;9417;16.484;102.872;2023-01-31T11:08:05;47.00;;;30.17;;
18574;SDS011;9417;16.484;102.872;2023-01-31T11:10:30;47.63;;;28.25;;
18574;SDS011;9417;16.484;102.872;2023-01-31T11:12:40;46.17;;;28.05;;
18574;SDS011;9417;16.484;102.872;2023-01-31T11:15:06;45.33;;;27.33;;
18574;SDS011;9417;16.484;102.872;2023-01-31T11:17:20;48.95;;;27.25;;
18574;SDS011;9417;16.484;102.872;2023-01-31T11:19:29;41.70;;;26.08;;
18574;SDS011;9417;16.484;102.872;2023-01-31T11:23:46;51.58;;;29.67;;
18574;SDS011;9417;16.484;102.872;2023-01-31T11:25:55;47.78;;;29.35;;
18574;SDS011;9417;16.484;102.872;2023-01-31T11:28:15;46.28;;;29.13;;
18574;SDS011;9417;16.484;102.872;2023-01-31T11:30:27;48.95;;;30.00;;
18574;SDS011;9417;16.484;102.872;2023-01-31T11:32:37;49.90;;;32.15;;
18574;SDS011;9417;16.484;102.872;2023-01-31T11:34:54;47.53;;;32.50;;
18574;SDS011;9417;16.484;102.872;2023-01-31T11:37:03;51.95;;;33.70;;
18574;SDS011;9417;16.484;102.872;2023-01-31T11:39:23;53.08;;;31.88;;
18574;SDS011;9417;16.484;102.872;2023-01-31T11:41:34;47.45;;;30.23;;
18574;SDS011;9417;16.484;102.872;2023-01-31T11:43:44;49.22;;;30.52;;
18574;SDS011;9417;16.484;102.872;2023-01-31T11:45:53;50.55;;;30.52;;
18574;SDS011;9417;16.484;102.872;2023-01-31T11:48:04;55.70;;;32.78;;
18574;SDS011;9417;16.484;102.872;2023-01-31T11:50:18;53.45;;;31.73;;
18574;SDS011;9417;16.484;102.872;2023-01-31T11:52:30;54.42;;;30.55;;
18574;SDS011;9417;16.484;102.872;2023-01-31T11:54:39;43.72;;;28.98;;
18574;SDS011;9417;16.484;102.872;2023-01-31T11:56:48;45.58;;;29.35;;
18574;SDS011;9417;16.484;102.872;2023-01-31T11:58:59;42.25;;;29.83;;
18574;SDS011;9417;16.484;102.872;2023-01-31T12:01:12;46.15;;;30.52;;
18574;SDS011;9417;16.484;102.872;2023-01-31T12:03:20;48.42;;;29.80;;
18574;SDS011;9417;16.484;102.872;2023-01-31T12:05:34;44.88;;;29.20;;
18574;SDS011;9417;16.484;102.872;2023-01-31T12:07:44;51.10;;;31.73;;
18574;SDS011;9417;16.484;102.872;2023-01-31T12:09:52;46.22;;;30.73;;
18574;SDS011;9417;16.484;102.872;2023-01-31T12:12:00;50.10;;;31.40;;
18574;SDS011;9417;16.484;102.872;2023-01-31T12:14:12;56.05;;;33.85;;
18574;SDS011;9417;16.484;102.872;2023-01-31T12:16:20;53.58;;;31.25;;
18574;SDS011;9417;16.484;102.872;2023-01-31T12:18:34;57.22;;;32.67;;
18574;SDS011;9417;16.484;102.872;2023-01-31T12:20:54;50.40;;;32.45;;
18574;SDS011;9417;16.484;102.872;2023-01-31T12:23:11;55.65;;;31.85;;
18574;SDS011;9417;16.484;102.872;2023-01-31T12:25:27;52.67;;;33.70;;
18574;SDS011;9417;16.484;102.872;2023-01-31T12:27:51;57.33;;;32.80;;
18574;SDS011;9417;16.484;102.872;2023-01-31T12:30:20;58.85;;;33.97;;
18574;SDS011;9417;16.484;102.872;2023-01-31T12:32:46;56.67;;;35.25;;
18574;SDS011;9417;16.484;102.872;2023-01-31T12:35:11;58.80;;;35.20;;
18574;SDS011;9417;16.484;102.872;2023-01-31T12:37:33;56.78;;;33.97;;
18574;SDS011;9417;16.484;102.872;2023-01-31T12:39:55;61.45;;;35.38;;
18574;SDS011;9417;16.484;102.872;2023-01-31T12:42:29;57.63;;;33.47;;
18574;SDS011;9417;16.484;102.872;2023-01-31T12:44:46;54.35;;;33.28;;
18574;SDS011;9417;16.484;102.872;2023-01-31T12:47:02;54.08;;;33.13;;